sensor_id;sensor_type;location;lat;lon;timestamp;pressure;altitude;pressure_sealevel;temperature;humidity
43119;BME280;28729;49.838;8.650;2023-03-29T00:02:43;100127.13;;;7.10;86.19
43119;BME280;28729;49.838;8.650;2023-03-29T00:06:49;100125.47;;;7.08;86.75
43119;BME280;28729;49.838;8.650;2023-03-29T00:10:51;100119.16;;;7.08;87.73
43119;BME280;28729;49.838;8.650;2023-03-29T00:14:54;100103.97;;;7.05;89.20
43119;BME280;28729;49.838;8.650;2023-03-29T00:18:56;100099.97;;;7.08;88.04
43119;BME280;28729;49.838;8.650;2023-03-29T00:22:57;100091.75;;;7.08;88.97
43119;BME280;28729;49.838;8.650;2023-03-29T00:26:59;100078.03;;;7.08;88.97
43119;BME280;28729;49.838;8.650;2023-03-29T00:31:09;100080.16;;;7.06;89.09
43119;BME280;28729;49.838;8.650;2023-03-29T00:35:11;100089.66;;;7.03;89.62
43119;BME280;28729;49.838;8.650;2023-03-29T00:39:13;100072.38;;;7.03;89.71
43119;BME280;28729;49.838;8.650;2023-03-29T00:43:15;100066.88;;;7.03;89.67
43119;BME280;28729;49.838;8.650;2023-03-29T00:47:21;100064.97;;;7.03;89.88
43119;BME280;28729;49.838;8.650;2023-03-29T00:51:27;100055.09;;;7.02;89.63
43119;BME280;28729;49.838;8.650;2023-03-29T00:55:35;100062.88;;;7.05;90.14
43119;BME280;28729;49.838;8.650;2023-03-29T00:59:40;100053.38;;;7.08;89.67
43119;BME280;28729;49.838;8.650;2023-03-29T01:03:46;100055.69;;;7.04;90.04
43119;BME280;28729;49.838;8.650;2023-03-29T01:07:57;100051.28;;;7.03;90.18
43119;BME280;28729;49.838;8.650;2023-03-29T01:12:05;100054.22;;;7.02;91.25
43119;BME280;28729;49.838;8.650;2023-03-29T01:16:10;100044.59;;;6.99;91.37
43119;BME280;28729;49.838;8.650;2023-03-29T01:20:25;100037.78;;;7.02;91.76
43119;BME280;28729;49.838;8.650;2023-03-29T01:24:40;100039.50;;;7.03;91.47
43119;BME280;28729;49.838;8.650;2023-03-29T01:28:50;100043.28;;;7.02;92.30
43119;BME280;28729;49.838;8.650;2023-03-29T01:32:56;100035.91;;;7.02;92.74
43119;BME280;28729;49.838;8.650;2023-03-29T01:37:04;100036.75;;;7.03;92.46
43119;BME280;28729;49.838;8.650;2023-03-29T01:41:09;100015.88;;;7.02;92.25
43119;BME280;28729;49.838;8.650;2023-03-29T01:45:18;100018.59;;;7.02;92.70
43119;BME280;28729;49.838;8.650;2023-03-29T01:53:34;100006.59;;;7.03;93.45
43119;BME280;28729;49.838;8.650;2023-03-29T01:57:39;100010.38;;;7.02;93.96
43119;BME280;28729;49.838;8.650;2023-03-29T02:01:48;99998.59;;;7.01;94.80
43119;BME280;28729;49.838;8.650;2023-03-29T02:05:52;99996.09;;;7.00;94.32
43119;BME280;28729;49.838;8.650;2023-03-29T02:09:55;100002.63;;;6.99;94.69
43119;BME280;28729;49.838;8.650;2023-03-29T02:13:58;99978.19;;;6.97;94.67
43119;BME280;28729;49.838;8.650;2023-03-29T02:18:00;99974.63;;;6.97;94.57
43119;BME280;28729;49.838;8.650;2023-03-29T02:22:08;99972.91;;;6.96;94.72
43119;BME280;28729;49.838;8.650;2023-03-29T02:26:11;99967.25;;;6.97;94.21
43119;BME280;28729;49.838;8.650;2023-03-29T02:30:16;99968.91;;;6.98;93.97
43119;BME280;28729;49.838;8.650;2023-03-29T02:34:23;99962.59;;;6.98;94.07
43119;BME280;28729;49.838;8.650;2023-03-29T02:38:29;99957.94;;;6.98;93.61
43119;BME280;28729;49.838;8.650;2023-03-29T02:42:33;99960.94;;;6.97;93.84
43119;BME280;28729;49.838;8.650;2023-03-29T02:46:36;99957.34;;;6.96;94.48
43119;BME280;28729;49.838;8.650;2023-03-29T02:50:39;99946.88;;;6.87;95.47
43119;BME280;28729;49.838;8.650;2023-03-29T02:54:42;99940.44;;;6.74;96.21
43119;BME280;28729;49.838;8.650;2023-03-29T02:58:46;99919.41;;;6.68;95.54
43119;BME280;28729;49.838;8.650;2023-03-29T03:02:48;99924.50;;;6.65;96.16
43119;BME280;28729;49.838;8.650;2023-03-29T03:06:51;99925.13;;;6.67;96.42
43119;BME280;28729;49.838;8.650;2023-03-29T03:10:53;99920.47;;;6.67;96.82
43119;BME280;28729;49.838;8.650;2023-03-29T03:14:55;99923.81;;;6.69;97.94
43119;BME280;28729;49.838;8.650;2023-03-29T03:18:57;99925.50;;;6.70;98.49
43119;BME280;28729;49.838;8.650;2023-03-29T03:23:01;99920.22;;;6.75;98.43
43119;BME280;28729;49.838;8.650;2023-03-29T03:27:04;99926.28;;;6.77;98.14
43119;BME280;28729;49.838;8.650;2023-03-29T03:31:06;99939.59;;;6.74;97.03
43119;BME280;28729;49.838;8.650;2023-03-29T03:35:31;99924.69;;;6.70;96.90
43119;BME280;28729;49.838;8.650;2023-03-29T03:39:33;99924.88;;;6.68;97.65
43119;BME280;28729;49.838;8.650;2023-03-29T03:43:38;99925.78;;;6.62;97.82
43119;BME280;28729;49.838;8.650;2023-03-29T03:47:43;99921.00;;;6.51;97.54
43119;BME280;28729;49.838;8.650;2023-03-29T03:52:18;99912.25;;;6.35;97.99
43119;BME280;28729;49.838;8.650;2023-03-29T03:56:20;99924.16;;;6.16;99.18
43119;BME280;28729;49.838;8.650;2023-03-29T04:00:43;99933.06;;;5.91;100.00
43119;BME280;28729;49.838;8.650;2023-03-29T04:05:03;99926.00;;;5.77;100.00
43119;BME280;28729;49.838;8.650;2023-03-29T04:09:09;99916.75;;;5.65;100.00
43119;BME280;28729;49.838;8.650;2023-03-29T04:13:15;99914.25;;;5.63;100.00
43119;BME280;28729;49.838;8.650;2023-03-29T04:17:40;99918.63;;;5.71;100.00
43119;BME280;28729;49.838;8.650;2023-03-29T04:21:53;99913.59;;;5.75;100.00
43119;BME280;28729;49.838;8.650;2023-03-29T04:25:55;99907.44;;;5.79;100.00
43119;BME280;28729;49.838;8.650;2023-03-29T04:30:35;99915.03;;;5.84;100.00
43119;BME280;28729;49.838;8.650;2023-03-29T04:34:51;99914.81;;;5.79;100.00
43119;BME280;28729;49.838;8.650;2023-03-29T04:38:53;99915.03;;;5.84;100.00
43119;BME280;28729;49.838;8.650;2023-03-29T04:42:56;99914.34;;;5.88;100.00
43119;BME280;28729;49.838;8.650;2023-03-29T04:46:59;99917.13;;;5.95;100.00
43119;BME280;28729;49.838;8.650;2023-03-29T04:51:24;99910.78;;;5.94;100.00
43119;BME280;28729;49.838;8.650;2023-03-29T04:55:27;99917.94;;;5.89;100.00
43119;BME280;28729;49.838;8.650;2023-03-29T04:59:34;99915.84;;;5.84;100.00
43119;BME280;28729;49.838;8.650;2023-03-29T05:03:44;99912.50;;;5.82;100.00
43119;BME280;28729;49.838;8.650;2023-03-29T05:07:52;99909.94;;;5.87;100.00
43119;BME280;28729;49.838;8.650;2023-03-29T05:12:01;99914.97;;;5.97;100.00
43119;BME280;28729;49.838;8.650;2023-03-29T05:16:11;99907.38;;;6.06;100.00
43119;BME280;28729;49.838;8.650;2023-03-29T05:20:14;99905.63;;;6.18;100.00
43119;BME280;28729;49.838;8.650;2023-03-29T05:24:18;99909.31;;;6.30;100.00
43119;BME280;28729;49.838;8.650;2023-03-29T05:28:29;99906.53;;;6.44;100.00
43119;BME280;28729;49.838;8.650;2023-03-29T05:32:31;99904.75;;;6.56;100.00
43119;BME280;28729;49.838;8.650;2023-03-29T05:36:33;99904.44;;;6.71;100.00
43119;BME280;28729;49.838;8.650;2023-03-29T05:40:35;99900.16;;;6.81;100.00
43119;BME280;28729;49.838;8.650;2023-03-29T05:45:12;99908.03;;;6.96;100.00
43119;BME280;28729;49.838;8.650;2023-03-29T05:49:14;99908.97;;;7.08;100.00
43119;BME280;28729;49.838;8.650;2023-03-29T05:53:32;99907.38;;;7.19;99.75
43119;BME280;28729;49.838;8.650;2023-03-29T05:57:35;99902.47;;;7.28;99.75
43119;BME280;28729;49.838;8.650;2023-03-29T06:01:39;99907.44;;;7.38;98.27
43119;BME280;28729;49.838;8.650;2023-03-29T06:05:48;99911.78;;;7.45;97.14
43119;BME280;28729;49.838;8.650;2023-03-29T06:09:51;99906.66;;;7.49;96.48
43119;BME280;28729;49.838;8.650;2023-03-29T06:13:56;99909.56;;;7.54;95.72
43119;BME280;28729;49.838;8.650;2023-03-29T06:17:58;99905.72;;;7.62;96.08
43119;BME280;28729;49.838;8.650;2023-03-29T06:22:00;99915.06;;;7.72;95.97
43119;BME280;28729;49.838;8.650;2023-03-29T06:26:06;99928.47;;;7.81;95.40
43119;BME280;28729;49.838;8.650;2023-03-29T06:30:11;99926.47;;;7.88;94.37
43119;BME280;28729;49.838;8.650;2023-03-29T06:34:13;99927.72;;;7.92;93.96
43119;BME280;28729;49.838;8.650;2023-03-29T06:38:37;99937.94;;;8.03;93.21
43119;BME280;28729;49.838;8.650;2023-03-29T06:42:58;99933.56;;;8.14;93.08
43119;BME280;28729;49.838;8.650;2023-03-29T06:47:18;99927.03;;;8.27;92.76
43119;BME280;28729;49.838;8.650;2023-03-29T06:51:20;99924.78;;;8.42;91.90
43119;BME280;28729;49.838;8.650;2023-03-29T06:55:24;99926.00;;;8.58;91.54
43119;BME280;28729;49.838;8.650;2023-03-29T06:59:28;99933.78;;;8.61;89.77
43119;BME280;28729;49.838;8.650;2023-03-29T07:03:43;99932.16;;;8.72;89.92
43119;BME280;28729;49.838;8.650;2023-03-29T07:07:51;99930.03;;;8.85;89.60
43119;BME280;28729;49.838;8.650;2023-03-29T07:12:09;99936.75;;;9.01;88.42
43119;BME280;28729;49.838;8.650;2023-03-29T07:16:12;99931.38;;;9.18;87.40
43119;BME280;28729;49.838;8.650;2023-03-29T07:20:49;99937.03;;;9.35;85.66
43119;BME280;28729;49.838;8.650;2023-03-29T07:24:53;99930.78;;;9.63;84.24
43119;BME280;28729;49.838;8.650;2023-03-29T07:28:57;99939.34;;;9.90;82.71
43119;BME280;28729;49.838;8.650;2023-03-29T07:32:59;99940.28;;;10.08;80.12
43119;BME280;28729;49.838;8.650;2023-03-29T07:37:12;99949.59;;;10.30;77.23
43119;BME280;28729;49.838;8.650;2023-03-29T07:41:16;99955.06;;;10.42;73.90
43119;BME280;28729;49.838;8.650;2023-03-29T07:45:24;99967.34;;;10.51;72.86
43119;BME280;28729;49.838;8.650;2023-03-29T07:49:34;99960.31;;;10.72;72.79
43119;BME280;28729;49.838;8.650;2023-03-29T07:53:36;99967.38;;;10.97;72.34
43119;BME280;28729;49.838;8.650;2023-03-29T07:57:48;99963.56;;;11.31;71.17
43119;BME280;28729;49.838;8.650;2023-03-29T08:01:51;99961.19;;;11.57;67.46
43119;BME280;28729;49.838;8.650;2023-03-29T08:06:11;99955.41;;;11.75;67.48
43119;BME280;28729;49.838;8.650;2023-03-29T08:10:16;99964.44;;;11.88;66.24
43119;BME280;28729;49.838;8.650;2023-03-29T08:14:43;99959.00;;;11.76;64.08
43119;BME280;28729;49.838;8.650;2023-03-29T08:18:57;99955.81;;;11.84;65.74
43119;BME280;28729;49.838;8.650;2023-03-29T08:23:15;99953.41;;;12.31;64.87
43119;BME280;28729;49.838;8.650;2023-03-29T08:27:36;99949.06;;;12.63;64.00
43119;BME280;28729;49.838;8.650;2023-03-29T08:31:41;99942.13;;;12.60;61.90
43119;BME280;28729;49.838;8.650;2023-03-29T08:35:43;99943.00;;;12.66;61.87
43119;BME280;28729;49.838;8.650;2023-03-29T08:39:55;99941.75;;;12.78;60.57
43119;BME280;28729;49.838;8.650;2023-03-29T08:44:44;99947.25;;;12.73;61.66
43119;BME280;28729;49.838;8.650;2023-03-29T08:48:58;99945.00;;;13.03;59.28
43119;BME280;28729;49.838;8.650;2023-03-29T08:53:38;99939.41;;;13.25;59.99
43119;BME280;28729;49.838;8.650;2023-03-29T08:58:00;99945.38;;;13.11;59.79
43119;BME280;28729;49.838;8.650;2023-03-29T09:02:13;99952.91;;;13.16;60.98
43119;BME280;28729;49.838;8.650;2023-03-29T09:06:19;99960.09;;;13.17;60.31
43119;BME280;28729;49.838;8.650;2023-03-29T09:10:54;99955.91;;;13.14;60.28
43119;BME280;28729;49.838;8.650;2023-03-29T09:15:15;99961.56;;;13.25;60.43
43119;BME280;28729;49.838;8.650;2023-03-29T09:20:06;99964.78;;;13.43;60.79
43119;BME280;28729;49.838;8.650;2023-03-29T09:24:35;99957.63;;;13.53;60.06
43119;BME280;28729;49.838;8.650;2023-03-29T09:29:06;99951.56;;;13.56;60.81
43119;BME280;28729;49.838;8.650;2023-03-29T09:37:37;99954.28;;;13.45;61.60
43119;BME280;28729;49.838;8.650;2023-03-29T09:41:46;99942.13;;;13.52;60.52
43119;BME280;28729;49.838;8.650;2023-03-29T09:45:56;99943.06;;;13.62;60.54
43119;BME280;28729;49.838;8.650;2023-03-29T09:50:33;99944.31;;;13.87;60.34
43119;BME280;28729;49.838;8.650;2023-03-29T09:54:41;99939.41;;;14.04;59.47
43119;BME280;28729;49.838;8.650;2023-03-29T09:59:11;99942.31;;;13.82;59.17
43119;BME280;28729;49.838;8.650;2023-03-29T10:03:24;99945.81;;;13.62;60.03
43119;BME280;28729;49.838;8.650;2023-03-29T10:07:44;99930.25;;;13.56;60.06
43119;BME280;28729;49.838;8.650;2023-03-29T10:11:55;99934.56;;;13.79;59.90
43119;BME280;28729;49.838;8.650;2023-03-29T10:16:07;99927.56;;;14.24;60.36
43119;BME280;28729;49.838;8.650;2023-03-29T10:20:18;99927.31;;;14.36;58.24
43119;BME280;28729;49.838;8.650;2023-03-29T10:24:21;99927.44;;;14.62;58.21
43119;BME280;28729;49.838;8.650;2023-03-29T10:28:23;99922.50;;;14.94;57.44
43119;BME280;28729;49.838;8.650;2023-03-29T10:32:33;99918.88;;;14.99;56.91
43119;BME280;28729;49.838;8.650;2023-03-29T10:36:39;99910.03;;;15.17;56.61
43119;BME280;28729;49.838;8.650;2023-03-29T10:40:47;99898.88;;;15.43;56.13
43119;BME280;28729;49.838;8.650;2023-03-29T10:44:55;99886.34;;;15.81;55.57
43119;BME280;28729;49.838;8.650;2023-03-29T10:48:59;99875.72;;;15.99;54.51
43119;BME280;28729;49.838;8.650;2023-03-29T10:53:11;99879.63;;;16.47;54.66
43119;BME280;28729;49.838;8.650;2023-03-29T10:57:35;99879.97;;;16.35;53.71
43119;BME280;28729;49.838;8.650;2023-03-29T11:06:22;99881.94;;;16.35;54.79
43119;BME280;28729;49.838;8.650;2023-03-29T11:14:49;99866.91;;;16.85;53.56
43119;BME280;28729;49.838;8.650;2023-03-29T11:32:33;99876.88;;;17.26;50.33
43119;BME280;28729;49.838;8.650;2023-03-29T11:41:11;99868.06;;;17.14;52.26
43119;BME280;28729;49.838;8.650;2023-03-29T11:45:38;99871.97;;;17.42;51.33
43119;BME280;28729;49.838;8.650;2023-03-29T11:49:43;99867.50;;;17.70;51.05
43119;BME280;28729;49.838;8.650;2023-03-29T11:53:59;99866.38;;;17.71;51.07
43119;BME280;28729;49.838;8.650;2023-03-29T11:58:30;99854.06;;;18.01;50.24
43119;BME280;28729;49.838;8.650;2023-03-29T12:02:43;99847.44;;;18.35;49.76
43119;BME280;28729;49.838;8.650;2023-03-29T12:06:56;99849.34;;;18.58;48.62
43119;BME280;28729;49.838;8.650;2023-03-29T12:15:56;99836.28;;;19.24;47.08
43119;BME280;28729;49.838;8.650;2023-03-29T12:20:22;99826.94;;;20.03;46.30
43119;BME280;28729;49.838;8.650;2023-03-29T12:24:33;99823.44;;;20.47;44.19
43119;BME280;28729;49.838;8.650;2023-03-29T12:33:10;99817.47;;;21.30;42.49
43119;BME280;28729;49.838;8.650;2023-03-29T12:41:38;99815.09;;;20.70;43.07
43119;BME280;28729;49.838;8.650;2023-03-29T12:50:30;99807.56;;;19.93;44.00
43119;BME280;28729;49.838;8.650;2023-03-29T12:54:33;99810.88;;;19.40;45.68
43119;BME280;28729;49.838;8.650;2023-03-29T13:02:41;99797.81;;;18.70;45.37
43119;BME280;28729;49.838;8.650;2023-03-29T13:06:55;99797.22;;;18.73;45.67
43119;BME280;28729;49.838;8.650;2023-03-29T13:11:04;99783.81;;;18.75;45.43
43119;BME280;28729;49.838;8.650;2023-03-29T13:19:36;99772.88;;;19.52;44.40
43119;BME280;28729;49.838;8.650;2023-03-29T13:44:42;99756.38;;;20.20;40.96
43119;BME280;28729;49.838;8.650;2023-03-29T13:48:51;99742.94;;;20.08;41.63
43119;BME280;28729;49.838;8.650;2023-03-29T13:53:02;99736.91;;;20.15;40.98
43119;BME280;28729;49.838;8.650;2023-03-29T13:57:14;99726.88;;;20.14;41.66
43119;BME280;28729;49.838;8.650;2023-03-29T14:01:34;99732.69;;;20.62;40.74
43119;BME280;28729;49.838;8.650;2023-03-29T14:05:52;99723.13;;;21.48;40.40
43119;BME280;28729;49.838;8.650;2023-03-29T14:09:58;99723.44;;;21.55;39.31
43119;BME280;28729;49.838;8.650;2023-03-29T14:14:03;99724.00;;;21.35;40.33
43119;BME280;28729;49.838;8.650;2023-03-29T14:18:11;99706.00;;;21.19;40.65
43119;BME280;28729;49.838;8.650;2023-03-29T14:22:18;99704.00;;;20.57;40.60
43119;BME280;28729;49.838;8.650;2023-03-29T14:26:22;99697.13;;;20.04;42.02
43119;BME280;28729;49.838;8.650;2023-03-29T14:30:27;99694.09;;;19.78;42.79
43119;BME280;28729;49.838;8.650;2023-03-29T14:34:29;99676.13;;;19.43;43.43
43119;BME280;28729;49.838;8.650;2023-03-29T14:38:34;99670.34;;;19.25;44.32
43119;BME280;28729;49.838;8.650;2023-03-29T14:42:38;99663.69;;;19.21;44.74
43119;BME280;28729;49.838;8.650;2023-03-29T14:46:40;99652.13;;;19.14;45.16
43119;BME280;28729;49.838;8.650;2023-03-29T14:50:45;99663.72;;;18.94;45.90
43119;BME280;28729;49.838;8.650;2023-03-29T14:54:50;99659.34;;;18.87;46.53
43119;BME280;28729;49.838;8.650;2023-03-29T14:58:55;99653.28;;;18.99;47.20
43119;BME280;28729;49.838;8.650;2023-03-29T15:02:59;99638.38;;;19.18;46.99
43119;BME280;28729;49.838;8.650;2023-03-29T15:07:03;99633.31;;;19.20;46.86
43119;BME280;28729;49.838;8.650;2023-03-29T15:11:23;99626.75;;;19.24;47.30
43119;BME280;28729;49.838;8.650;2023-03-29T15:15:33;99608.88;;;19.25;48.29
43119;BME280;28729;49.838;8.650;2023-03-29T15:19:35;99626.16;;;19.13;48.17
43119;BME280;28729;49.838;8.650;2023-03-29T15:23:46;99632.06;;;18.98;49.15
43119;BME280;28729;49.838;8.650;2023-03-29T15:27:50;99628.97;;;18.86;50.00
43119;BME280;28729;49.838;8.650;2023-03-29T15:31:55;99627.72;;;18.78;50.27
43119;BME280;28729;49.838;8.650;2023-03-29T15:35:59;99629.47;;;18.74;51.13
43119;BME280;28729;49.838;8.650;2023-03-29T15:40:02;99628.19;;;18.66;51.82
43119;BME280;28729;49.838;8.650;2023-03-29T15:44:10;99634.34;;;18.36;52.81
43119;BME280;28729;49.838;8.650;2023-03-29T15:48:22;99629.19;;;18.10;53.82
43119;BME280;28729;49.838;8.650;2023-03-29T15:52:23;99636.06;;;17.80;54.61
43119;BME280;28729;49.838;8.650;2023-03-29T15:56:27;99634.97;;;17.57;56.08
43119;BME280;28729;49.838;8.650;2023-03-29T16:00:29;99620.38;;;17.46;56.85
43119;BME280;28729;49.838;8.650;2023-03-29T16:04:32;99631.53;;;17.46;56.97
43119;BME280;28729;49.838;8.650;2023-03-29T16:08:34;99619.53;;;17.46;56.24
43119;BME280;28729;49.838;8.650;2023-03-29T16:12:36;99618.72;;;17.45;56.17
43119;BME280;28729;49.838;8.650;2023-03-29T16:16:39;99619.84;;;17.44;56.09
43119;BME280;28729;49.838;8.650;2023-03-29T16:20:40;99613.69;;;17.28;55.52
43119;BME280;28729;49.838;8.650;2023-03-29T16:24:42;99614.44;;;17.34;55.61
43119;BME280;28729;49.838;8.650;2023-03-29T16:28:45;99606.91;;;17.35;54.97
43119;BME280;28729;49.838;8.650;2023-03-29T16:32:47;99604.94;;;17.35;55.35
43119;BME280;28729;49.838;8.650;2023-03-29T16:36:49;99611.41;;;17.30;55.20
43119;BME280;28729;49.838;8.650;2023-03-29T16:40:51;99601.56;;;17.19;55.45
43119;BME280;28729;49.838;8.650;2023-03-29T16:44:53;99601.88;;;17.13;55.80
43119;BME280;28729;49.838;8.650;2023-03-29T16:48:55;99595.94;;;17.00;56.53
43119;BME280;28729;49.838;8.650;2023-03-29T16:52:58;99589.78;;;16.79;57.45
43119;BME280;28729;49.838;8.650;2023-03-29T16:56:59;99586.50;;;16.72;57.97
43119;BME280;28729;49.838;8.650;2023-03-29T17:01:07;99588.22;;;16.68;58.99
43119;BME280;28729;49.838;8.650;2023-03-29T17:05:11;99574.38;;;16.63;59.22
43119;BME280;28729;49.838;8.650;2023-03-29T17:09:13;99574.47;;;16.53;60.17
43119;BME280;28729;49.838;8.650;2023-03-29T17:13:19;99577.84;;;16.50;60.66
43119;BME280;28729;49.838;8.650;2023-03-29T17:17:21;99575.44;;;16.43;61.72
43119;BME280;28729;49.838;8.650;2023-03-29T17:21:24;99558.59;;;16.29;63.45
43119;BME280;28729;49.838;8.650;2023-03-29T17:25:27;99563.44;;;16.18;65.48
43119;BME280;28729;49.838;8.650;2023-03-29T17:29:29;99562.72;;;16.08;66.80
43119;BME280;28729;49.838;8.650;2023-03-29T17:33:31;99570.03;;;15.99;68.05
43119;BME280;28729;49.838;8.650;2023-03-29T17:37:33;99555.69;;;15.86;69.44
43119;BME280;28729;49.838;8.650;2023-03-29T17:41:35;99551.28;;;15.80;69.52
43119;BME280;28729;49.838;8.650;2023-03-29T17:45:38;99558.53;;;15.76;69.72
43119;BME280;28729;49.838;8.650;2023-03-29T17:49:40;99565.78;;;15.67;70.34
43119;BME280;28729;49.838;8.650;2023-03-29T17:53:41;99560.31;;;15.57;71.44
43119;BME280;28729;49.838;8.650;2023-03-29T17:57:43;99555.97;;;15.45;72.11
43119;BME280;28729;49.838;8.650;2023-03-29T18:01:45;99558.81;;;15.35;73.39
43119;BME280;28729;49.838;8.650;2023-03-29T18:05:47;99546.13;;;15.24;73.80
43119;BME280;28729;49.838;8.650;2023-03-29T18:09:48;99539.22;;;15.16;74.58
43119;BME280;28729;49.838;8.650;2023-03-29T18:13:52;99551.75;;;15.09;75.40
43119;BME280;28729;49.838;8.650;2023-03-29T18:17:55;99543.47;;;14.98;76.37
43119;BME280;28729;49.838;8.650;2023-03-29T18:21:57;99551.28;;;14.91;76.57
43119;BME280;28729;49.838;8.650;2023-03-29T18:26:00;99555.72;;;14.87;77.03
43119;BME280;28729;49.838;8.650;2023-03-29T18:30:06;99562.16;;;14.82;77.55
43119;BME280;28729;49.838;8.650;2023-03-29T18:34:09;99559.13;;;14.79;78.35
43119;BME280;28729;49.838;8.650;2023-03-29T18:38:11;99545.00;;;14.75;78.29
43119;BME280;28729;49.838;8.650;2023-03-29T18:42:13;99539.16;;;14.72;78.09
43119;BME280;28729;49.838;8.650;2023-03-29T18:46:14;99543.91;;;14.66;77.84
43119;BME280;28729;49.838;8.650;2023-03-29T18:50:16;99545.31;;;14.58;77.77
43119;BME280;28729;49.838;8.650;2023-03-29T18:54:19;99540.31;;;14.50;77.58
43119;BME280;28729;49.838;8.650;2023-03-29T18:58:21;99537.31;;;14.52;76.42
43119;BME280;28729;49.838;8.650;2023-03-29T19:02:24;99530.34;;;14.54;74.56
43119;BME280;28729;49.838;8.650;2023-03-29T19:06:26;99515.41;;;14.55;73.49
43119;BME280;28729;49.838;8.650;2023-03-29T19:10:28;99525.34;;;14.56;72.93
43119;BME280;28729;49.838;8.650;2023-03-29T19:14:29;99526.75;;;14.54;71.54
43119;BME280;28729;49.838;8.650;2023-03-29T19:18:32;99517.59;;;14.53;70.71
43119;BME280;28729;49.838;8.650;2023-03-29T19:22:34;99519.25;;;14.59;68.65
43119;BME280;28729;49.838;8.650;2023-03-29T19:26:36;99513.13;;;14.68;67.37
43119;BME280;28729;49.838;8.650;2023-03-29T19:30:38;99516.16;;;14.71;65.42
43119;BME280;28729;49.838;8.650;2023-03-29T19:34:41;99503.34;;;14.80;65.78
43119;BME280;28729;49.838;8.650;2023-03-29T19:38:42;99500.25;;;14.87;64.10
43119;BME280;28729;49.838;8.650;2023-03-29T19:42:45;99503.53;;;14.99;62.47
43119;BME280;28729;49.838;8.650;2023-03-29T19:46:49;99493.44;;;15.14;62.60
43119;BME280;28729;49.838;8.650;2023-03-29T19:50:51;99490.63;;;15.19;61.88
43119;BME280;28729;49.838;8.650;2023-03-29T19:54:56;99467.84;;;15.22;61.56
43119;BME280;28729;49.838;8.650;2023-03-29T19:58:59;99455.06;;;15.26;60.77
43119;BME280;28729;49.838;8.650;2023-03-29T20:03:01;99433.63;;;15.32;60.54
43119;BME280;28729;49.838;8.650;2023-03-29T20:07:04;99433.88;;;15.35;59.92
43119;BME280;28729;49.838;8.650;2023-03-29T20:11:06;99434.13;;;15.39;60.07
43119;BME280;28729;49.838;8.650;2023-03-29T20:15:13;99421.63;;;15.41;59.38
43119;BME280;28729;49.838;8.650;2023-03-29T20:19:15;99415.19;;;15.46;58.82
43119;BME280;28729;49.838;8.650;2023-03-29T20:23:26;99407.34;;;15.53;58.68
43119;BME280;28729;49.838;8.650;2023-03-29T20:27:27;99397.09;;;15.48;58.48
43119;BME280;28729;49.838;8.650;2023-03-29T20:31:30;99395.38;;;15.53;58.04
43119;BME280;28729;49.838;8.650;2023-03-29T20:35:32;99394.16;;;15.64;57.38
43119;BME280;28729;49.838;8.650;2023-03-29T20:39:34;99387.47;;;15.70;56.40
43119;BME280;28729;49.838;8.650;2023-03-29T20:43:36;99396.53;;;15.81;55.17
43119;BME280;28729;49.838;8.650;2023-03-29T20:47:38;99384.69;;;15.94;54.48
43119;BME280;28729;49.838;8.650;2023-03-29T20:51:43;99372.94;;;16.02;53.20
43119;BME280;28729;49.838;8.650;2023-03-29T20:55:44;99383.63;;;16.14;52.90
43119;BME280;28729;49.838;8.650;2023-03-29T20:59:47;99375.19;;;16.24;52.54
43119;BME280;28729;49.838;8.650;2023-03-29T21:03:52;99370.72;;;16.23;51.67
43119;BME280;28729;49.838;8.650;2023-03-29T21:07:54;99367.28;;;16.31;51.71
43119;BME280;28729;49.838;8.650;2023-03-29T21:11:56;99362.78;;;16.35;51.37
43119;BME280;28729;49.838;8.650;2023-03-29T21:15:57;99348.06;;;16.35;51.15
43119;BME280;28729;49.838;8.650;2023-03-29T21:19:59;99354.44;;;16.35;50.85
43119;BME280;28729;49.838;8.650;2023-03-29T21:24:01;99351.66;;;16.35;51.12
43119;BME280;28729;49.838;8.650;2023-03-29T21:28:04;99343.91;;;16.32;51.35
43119;BME280;28729;49.838;8.650;2023-03-29T21:32:06;99341.44;;;16.31;51.20
43119;BME280;28729;49.838;8.650;2023-03-29T21:36:08;99329.56;;;16.25;50.80
43119;BME280;28729;49.838;8.650;2023-03-29T21:40:10;99332.88;;;16.27;50.62
43119;BME280;28729;49.838;8.650;2023-03-29T21:44:13;99322.38;;;16.24;50.99
43119;BME280;28729;49.838;8.650;2023-03-29T21:48:15;99322.97;;;16.21;50.31
43119;BME280;28729;49.838;8.650;2023-03-29T21:52:17;99318.44;;;16.25;50.21
43119;BME280;28729;49.838;8.650;2023-03-29T21:56:19;99321.28;;;16.20;50.16
43119;BME280;28729;49.838;8.650;2023-03-29T22:00:23;99317.31;;;16.26;50.12
43119;BME280;28729;49.838;8.650;2023-03-29T22:04:25;99317.53;;;16.30;49.46
43119;BME280;28729;49.838;8.650;2023-03-29T22:08:37;99316.72;;;16.29;48.27
43119;BME280;28729;49.838;8.650;2023-03-29T22:12:39;99313.81;;;16.39;49.31
43119;BME280;28729;49.838;8.650;2023-03-29T22:16:41;99310.81;;;16.36;48.78
43119;BME280;28729;49.838;8.650;2023-03-29T22:20:47;99297.88;;;16.45;49.18
43119;BME280;28729;49.838;8.650;2023-03-29T22:24:51;99299.59;;;16.41;48.71
43119;BME280;28729;49.838;8.650;2023-03-29T22:28:55;99309.28;;;16.44;49.06
43119;BME280;28729;49.838;8.650;2023-03-29T22:32:58;99301.47;;;16.46;48.93
43119;BME280;28729;49.838;8.650;2023-03-29T22:36:59;99305.28;;;16.50;48.89
43119;BME280;28729;49.838;8.650;2023-03-29T22:41:01;99305.00;;;16.51;49.00
43119;BME280;28729;49.838;8.650;2023-03-29T22:45:03;99300.25;;;16.52;49.13
43119;BME280;28729;49.838;8.650;2023-03-29T22:49:05;99313.25;;;16.56;49.15
43119;BME280;28729;49.838;8.650;2023-03-29T22:53:08;99315.22;;;16.56;49.28
43119;BME280;28729;49.838;8.650;2023-03-29T22:57:10;99310.03;;;16.49;49.50
43119;BME280;28729;49.838;8.650;2023-03-29T23:01:12;99314.25;;;16.47;49.59
43119;BME280;28729;49.838;8.650;2023-03-29T23:05:14;99313.19;;;16.43;50.04
43119;BME280;28729;49.838;8.650;2023-03-29T23:09:15;99311.63;;;16.36;50.19
43119;BME280;28729;49.838;8.650;2023-03-29T23:13:17;99299.97;;;16.34;50.86
43119;BME280;28729;49.838;8.650;2023-03-29T23:17:26;99290.06;;;16.28;51.03